Wetterdaten: Woche 28.08.17 - 03.09.17 (KW35)
Datum Zeit Temp. A. Pool Temp. Feuchte A. Luftdruck Regen Wind Richtung Sonnenschein ET UV Solar Taupunkt Windchill Windben Empfang
28.08.2017 00:00 19,0 C 24,4 C 89 % 1016,2 hPa 1,0 l/m 2,5 km/h (1 Bft) S-SW 0,00 h 0,000 mm 0,0 UV-I 0 W/m 17,0 C 18,9 C 4,9 km/h (1 Bft) 97,87 %
28.08.2017 01:00 18,3 C 24,4 C 93 % 1016,2 hPa 1,8 l/m 1,0 km/h (0 Bft) S-SO 0,00 h 0,000 mm 0,0 UV-I 0 W/m 17,1 C 18,3 C 2,9 km/h (1 Bft) 99,17 %
28.08.2017 02:00 18,1 C 24,4 C 94 % 1016,2 hPa 0,0 l/m 1,2 km/h (1 Bft) S 0,00 h 0,000 mm 0,0 UV-I 0 W/m 17,1 C 18,1 C 2,8 km/h (1 Bft) 95,90 %
28.08.2017 03:00 17,9 C 24,4 C 94 % 1016,1 hPa 0,0 l/m 1,3 km/h (1 Bft) S 0,00 h 0,000 mm 0,0 UV-I 0 W/m 16,9 C 17,9 C 3,5 km/h (1 Bft) 99,56 %
28.08.2017 04:00 17,7 C 24,4 C 95 % 1016,2 hPa 0,0 l/m 1,3 km/h (1 Bft) NO 0,00 h 0,000 mm 0,0 UV-I 0 W/m 16,9 C 17,7 C 2,6 km/h (1 Bft) 97,58 %
28.08.2017 05:00 17,5 C 23,9 C 95 % 1016,1 hPa 7,0 l/m 2,8 km/h (1 Bft) NO 0,00 h 0,000 mm 0,0 UV-I 3 W/m 16,7 C 17,4 C 5,0 km/h (1 Bft) 98,38 %
28.08.2017 06:00 17,3 C 23,9 C 96 % 1016,3 hPa 0,0 l/m 1,7 km/h (1 Bft) SO 0,27 h 0,000 mm 0,0 UV-I 21 W/m 16,7 C 17,3 C 3,6 km/h (1 Bft) 96,50 %
28.08.2017 07:00 17,6 C 23,9 C 96 % 1016,5 hPa 0,0 l/m 1,6 km/h (1 Bft) SO 0,23 h 0,025 mm 0,0 UV-I 78 W/m 17,0 C 17,6 C 2,8 km/h (1 Bft) 99,60 %
28.08.2017 08:00 18,3 C 23,9 C 96 % 1016,7 hPa 0,0 l/m 4,6 km/h (1 Bft) NO 0,47 h 0,051 mm 0,6 UV-I 211 W/m 17,6 C 18,3 C 6,7 km/h (2 Bft) 98,25 %
28.08.2017 09:00 19,3 C 23,9 C 92 % 1016,8 hPa 0,0 l/m 6,1 km/h (2 Bft) O-NO 0,10 h 0,127 mm 0,8 UV-I 221 W/m 18,0 C 19,2 C 9,4 km/h (2 Bft) 98,52 %
28.08.2017 10:00 20,4 C 23,9 C 88 % 1016,8 hPa 0,0 l/m 7,7 km/h (2 Bft) O-NO 0,57 h 0,127 mm 1,9 UV-I 426 W/m 18,3 C 19,8 C 12,0 km/h (2 Bft) 96,39 %
28.08.2017 11:00 21,0 C 23,9 C 84 % 1016,9 hPa 0,0 l/m 5,9 km/h (2 Bft) O-NO 0,17 h 0,254 mm 1,9 UV-I 320 W/m 18,1 C 20,8 C 9,3 km/h (2 Bft) 99,58 %
28.08.2017 12:00 21,0 C 23,9 C 81 % 1016,6 hPa 0,0 l/m 3,6 km/h (1 Bft) NO 0,00 h 0,203 mm 1,7 UV-I 177 W/m 17,5 C 21,0 C 6,4 km/h (2 Bft) 98,44 %
28.08.2017 13:00 20,4 C 23,9 C 84 % 1016,4 hPa 0,0 l/m 1,9 km/h (1 Bft) SO 0,00 h 0,127 mm 0,7 UV-I 100 W/m 17,6 C 20,4 C 3,9 km/h (1 Bft) 98,94 %
28.08.2017 14:00 20,6 C 23,9 C 84 % 1016,6 hPa 0,0 l/m 3,0 km/h (1 Bft) S-SO 0,00 h 0,077 mm 1,5 UV-I 195 W/m 17,7 C 20,6 C 6,6 km/h (2 Bft) 96,31 %
28.08.2017 15:00 21,7 C 23,9 C 82 % 1016,3 hPa 0,0 l/m 5,8 km/h (2 Bft) SW 0,50 h 0,127 mm 2,0 UV-I 385 W/m 18,5 C 21,5 C 10,5 km/h (2 Bft) 99,32 %
28.08.2017 16:00 22,1 C 24,4 C 77 % 1016,1 hPa 0,0 l/m 5,4 km/h (1 Bft) SW 0,47 h 0,254 mm 1,6 UV-I 318 W/m 17,9 C 22,0 C 9,2 km/h (2 Bft) 98,25 %
28.08.2017 17:00 20,3 C 24,2 C 79 % 1016,1 hPa 0,0 l/m 4,4 km/h (1 Bft) SW 0,03 h 0,203 mm 0,0 UV-I 79 W/m 16,6 C 20,3 C 7,7 km/h (2 Bft) 99,07 %
28.08.2017 18:00 20,6 C 23,9 C 76 % 1016,1 hPa 0,0 l/m 4,2 km/h (1 Bft) W-SW 1,00 h 0,076 mm 0,0 UV-I 148 W/m 16,3 C 20,6 C 6,7 km/h (2 Bft) 96,39 %
28.08.2017 19:00 19,4 C 23,9 C 83 % 1016,2 hPa 0,0 l/m 0,9 km/h (0 Bft) S-SW 0,20 h 0,102 mm 0,0 UV-I 31 W/m 16,3 C 19,4 C 2,1 km/h (1 Bft) 98,57 %
28.08.2017 20:00 17,6 C 23,9 C 91 % 1016,7 hPa 0,0 l/m 0,2 km/h (0 Bft) S-SW 0,00 h 0,025 mm 0,0 UV-I 4 W/m 16,1 C 17,6 C 1,0 km/h (0 Bft) 98,85 %
28.08.2017 21:00 17,7 C 23,9 C 91 % 1017,3 hPa 0,0 l/m 0,4 km/h (0 Bft) S-SW 0,00 h 0,000 mm 0,0 UV-I 0 W/m 16,1 C 17,7 C 1,5 km/h (1 Bft) 99,32 %
28.08.2017 22:00 16,9 C 23,9 C 91 % 1017,6 hPa 0,0 l/m 1,0 km/h (0 Bft) S-SW 0,00 h 0,000 mm 0,0 UV-I 0 W/m 15,4 C 16,9 C 2,1 km/h (1 Bft) 96,04 %
28.08.2017 23:00 16,0 C 23,9 C 93 % 1017,8 hPa 0,0 l/m 0,1 km/h (0 Bft) S-SW 0,00 h 0,000 mm 0,0 UV-I 0 W/m 15,0 C 16,0 C 0,4 km/h (0 Bft) 99,12 %
29.08.2017 00:00 15,3 C 23,3 C 95 % 1017,8 hPa 0,0 l/m 0,6 km/h (0 Bft) S-SW 0,00 h 0,000 mm 0,0 UV-I 0 W/m 14,5 C 15,3 C 1,5 km/h (1 Bft) 98,31 %
29.08.2017 01:00 15,0 C 23,3 C 96 % 1017,8 hPa 0,0 l/m 0,1 km/h (0 Bft) S-SW 0,00 h 0,000 mm 0,0 UV-I 0 W/m 14,3 C 15,0 C 0,4 km/h (0 Bft) 98,20 %
29.08.2017 02:00 14,4 C 23,3 C 96 % 1017,8 hPa 0,0 l/m 0,1 km/h (0 Bft) S-SW 0,00 h 0,000 mm 0,0 UV-I 0 W/m 13,8 C 14,4 C 0,4 km/h (0 Bft) 97,83 %
29.08.2017 03:00 14,4 C 23,3 C 97 % 1017,7 hPa 0,0 l/m 0,0 km/h (0 Bft) N 0,00 h 0,000 mm 0,0 UV-I 0 W/m 13,9 C 14,4 C 0,0 km/h (0 Bft) 99,19 %
29.08.2017 04:00 13,7 C 23,3 C 97 % 1017,6 hPa 0,0 l/m 0,4 km/h (0 Bft) O 0,00 h 0,000 mm 0,0 UV-I 0 W/m 13,2 C 13,7 C 0,9 km/h (0 Bft) 97,61 %
29.08.2017 05:00 13,6 C 22,9 C 97 % 1017,4 hPa 0,0 l/m 1,9 km/h (1 Bft) O-NO 0,00 h 0,000 mm 0,0 UV-I 0 W/m 13,2 C 13,6 C 3,4 km/h (1 Bft) 98,11 %
29.08.2017 06:00 13,2 C 22,8 C 97 % 1017,5 hPa 0,0 l/m 1,0 km/h (0 Bft) O-NO 0,20 h 0,000 mm 0,0 UV-I 21 W/m 12,7 C 13,2 C 1,8 km/h (1 Bft) 98,37 %
29.08.2017 07:00 13,8 C 22,8 C 95 % 1017,8 hPa 0,0 l/m 2,9 km/h (1 Bft) NO 0,77 h 0,000 mm 0,0 UV-I 130 W/m 13,0 C 13,8 C 4,9 km/h (1 Bft) 99,44 %
29.08.2017 08:00 15,3 C 22,8 C 87 % 1017,8 hPa 0,0 l/m 8,3 km/h (2 Bft) O-NO 1,00 h 0,076 mm 0,8 UV-I 297 W/m 13,0 C 14,2 C 12,5 km/h (3 Bft) 96,16 %
29.08.2017 09:00 17,2 C 22,8 C 82 % 1017,8 hPa 0,0 l/m 9,5 km/h (2 Bft) O-NO 1,00 h 0,178 mm 1,7 UV-I 472 W/m 14,0 C 15,7 C 14,8 km/h (3 Bft) 99,45 %
29.08.2017 10:00 19,0 C 22,8 C 78 % 1017,6 hPa 0,0 l/m 10,5 km/h (2 Bft) O-NO 1,00 h 0,279 mm 2,9 UV-I 617 W/m 15,1 C 17,4 C 16,0 km/h (3 Bft) 98,51 %
29.08.2017 11:00 21,1 C 23,3 C 70 % 1017,3 hPa 0,0 l/m 12,0 km/h (2 Bft) O-NO 1,00 h 0,381 mm 4,2 UV-I 720 W/m 15,4 C 19,4 C 18,2 km/h (3 Bft) 98,56 %
29.08.2017 12:00 22,7 C 23,3 C 58 % 1017,0 hPa 0,0 l/m 14,1 km/h (3 Bft) O-NO 1,00 h 0,483 mm 5,0 UV-I 777 W/m 13,9 C 20,7 C 20,7 km/h (4 Bft) 96,62 %
29.08.2017 13:00 23,7 C 23,5 C 54 % 1016,5 hPa 0,0 l/m 12,7 km/h (3 Bft) O-NO 1,00 h 0,559 mm 5,0 UV-I 781 W/m 13,9 C 22,2 C 19,9 km/h (4 Bft) 97,83 %
29.08.2017 14:00 24,3 C 23,9 C 53 % 1016,0 hPa 0,0 l/m 10,7 km/h (2 Bft) NO 1,00 h 0,559 mm 4,4 UV-I 727 W/m 14,1 C 23,3 C 16,5 km/h (3 Bft) 98,55 %
29.08.2017 15:00 24,8 C 23,9 C 53 % 1015,5 hPa 0,0 l/m 9,3 km/h (2 Bft) NO 1,00 h 0,533 mm 3,2 UV-I 625 W/m 14,5 C 24,1 C 15,1 km/h (3 Bft) 98,59 %
29.08.2017 16:00 25,1 C 24,3 C 53 % 1015,0 hPa 0,0 l/m 7,1 km/h (2 Bft) NO 1,00 h 0,457 mm 2,0 UV-I 483 W/m 14,7 C 24,8 C 11,8 km/h (2 Bft) 96,99 %
29.08.2017 17:00 25,0 C 24,4 C 51 % 1014,5 hPa 0,0 l/m 6,8 km/h (2 Bft) O-NO 1,00 h 0,356 mm 1,0 UV-I 320 W/m 14,2 C 24,8 C 10,5 km/h (2 Bft) 98,11 %
29.08.2017 18:00 24,3 C 24,4 C 54 % 1013,9 hPa 0,0 l/m 7,2 km/h (2 Bft) O-NO 1,00 h 0,254 mm 0,5 UV-I 153 W/m 14,3 C 24,0 C 11,3 km/h (2 Bft) 99,23 %
29.08.2017 19:00 21,9 C 24,1 C 63 % 1013,8 hPa 0,0 l/m 3,6 km/h (1 Bft) NO 0,70 h 0,152 mm 0,0 UV-I 32 W/m 14,5 C 21,9 C 5,8 km/h (2 Bft) 98,31 %
29.08.2017 20:00 20,0 C 23,9 C 66 % 1013,9 hPa 0,0 l/m 3,6 km/h (1 Bft) O 0,00 h 0,051 mm 0,0 UV-I 3 W/m 13,5 C 20,0 C 5,3 km/h (1 Bft) 97,80 %
29.08.2017 21:00 19,4 C 23,9 C 66 % 1014,0 hPa 0,0 l/m 6,5 km/h (2 Bft) O-NO 0,00 h 0,025 mm 0,0 UV-I 0 W/m 12,8 C 19,2 C 10,2 km/h (2 Bft) 97,43 %
29.08.2017 22:00 17,9 C 23,9 C 71 % 1014,0 hPa 0,0 l/m 4,6 km/h (1 Bft) O-NO 0,00 h 0,051 mm 0,0 UV-I 0 W/m 12,5 C 17,9 C 6,7 km/h (2 Bft) 99,14 %
29.08.2017 23:00 17,0 C 23,5 C 73 % 1014,2 hPa 0,0 l/m 1,8 km/h (1 Bft) O-NO 0,00 h 0,026 mm 0,0 UV-I 0 W/m 12,1 C 17,0 C 3,1 km/h (1 Bft) 98,10 %
30.08.2017 00:00 15,1 C 23,3 C 81 % 1014,3 hPa 0,0 l/m 0,8 km/h (0 Bft) O-NO 0,00 h 0,000 mm 0,0 UV-I 0 W/m 11,9 C 15,1 C 1,7 km/h (1 Bft) 97,28 %
30.08.2017 01:00 13,9 C 23,3 C 86 % 1014,3 hPa 0,0 l/m 0,6 km/h (0 Bft) S-SO 0,00 h 0,000 mm 0,0 UV-I 0 W/m 11,5 C 13,9 C 1,4 km/h (1 Bft) 98,19 %
30.08.2017 02:00 13,2 C 23,3 C 87 % 1014,3 hPa 0,0 l/m 0,8 km/h (0 Bft) S-SO 0,00 h 0,000 mm 0,0 UV-I 0 W/m 11,1 C 13,2 C 1,5 km/h (1 Bft) 98,43 %
30.08.2017 03:00 12,6 C 23,2 C 88 % 1014,2 hPa 0,0 l/m 0,6 km/h (0 Bft) S-SW 0,00 h 0,000 mm 0,0 UV-I 0 W/m 10,6 C 12,6 C 1,3 km/h (1 Bft) 96,34 %
30.08.2017 04:00 12,2 C 22,8 C 89 % 1014,2 hPa 0,0 l/m 0,1 km/h (0 Bft) N 0,00 h 0,000 mm 0,0 UV-I 0 W/m 10,4 C 12,2 C 0,3 km/h (0 Bft) 98,01 %
30.08.2017 05:00 11,7 C 22,8 C 90 % 1014,1 hPa 0,0 l/m 0,0 km/h (0 Bft) N 0,00 h 0,000 mm 0,0 UV-I 0 W/m 10,2 C 11,7 C 0,0 km/h (0 Bft) 98,68 %
30.08.2017 06:00 11,4 C 22,8 C 91 % 1014,1 hPa 0,0 l/m 0,0 km/h (0 Bft) N 0,50 h 0,000 mm 0,0 UV-I 27 W/m 10,0 C 11,4 C 0,0 km/h (0 Bft) 96,83 %
30.08.2017 07:00 12,8 C 22,8 C 90 % 1014,1 hPa 0,0 l/m 2,5 km/h (1 Bft) O-NO 1,00 h 0,025 mm 0,0 UV-I 142 W/m 11,2 C 12,8 C 3,9 km/h (1 Bft) 99,20 %
30.08.2017 08:00 15,3 C 22,8 C 89 % 1014,1 hPa 0,0 l/m 6,0 km/h (2 Bft) NO 1,00 h 0,077 mm 0,8 UV-I 313 W/m 13,5 C 15,1 C 8,9 km/h (2 Bft) 97,99 %
30.08.2017 09:00 17,3 C 22,8 C 81 % 1014,1 hPa 0,0 l/m 6,6 km/h (2 Bft) O-NO 1,00 h 0,177 mm 1,7 UV-I 479 W/m 14,0 C 17,1 C 9,8 km/h (2 Bft) 97,90 %
30.08.2017 10:00 19,4 C 22,8 C 76 % 1014,0 hPa 0,0 l/m 4,9 km/h (1 Bft) NO 1,00 h 0,280 mm 3,0 UV-I 619 W/m 15,1 C 19,4 C 8,3 km/h (2 Bft) 97,25 %
30.08.2017 11:00 21,5 C 22,9 C 69 % 1013,7 hPa 0,0 l/m 6,3 km/h (2 Bft) O-NO 1,00 h 0,381 mm 4,0 UV-I 714 W/m 15,7 C 21,3 C 10,6 km/h (2 Bft) 98,76 %
30.08.2017 12:00 23,2 C 23,3 C 66 % 1013,3 hPa 0,0 l/m 6,3 km/h (2 Bft) O-NO 1,00 h 0,457 mm 4,8 UV-I 766 W/m 16,3 C 23,0 C 10,4 km/h (2 Bft) 98,77 %
30.08.2017 13:00 24,7 C 23,5 C 62 % 1012,9 hPa 0,0 l/m 5,9 km/h (2 Bft) NO 1,00 h 0,483 mm 4,9 UV-I 765 W/m 16,9 C 24,6 C 9,9 km/h (2 Bft) 98,46 %
30.08.2017 14:00 26,1 C 23,9 C 60 % 1012,4 hPa 0,0 l/m 7,0 km/h (2 Bft) NO 1,00 h 0,508 mm 4,3 UV-I 716 W/m 17,6 C 25,9 C 12,4 km/h (3 Bft) 97,08 %
30.08.2017 15:00 27,1 C 24,0 C 56 % 1011,9 hPa 0,0 l/m 6,8 km/h (2 Bft) NO 1,00 h 0,508 mm 3,2 UV-I 616 W/m 17,5 C 26,8 C 11,1 km/h (2 Bft) 98,33 %
30.08.2017 16:00 27,8 C 24,4 C 52 % 1011,5 hPa 0,0 l/m 7,3 km/h (2 Bft) NO 1,00 h 0,457 mm 1,9 UV-I 472 W/m 16,9 C 27,6 C 11,7 km/h (2 Bft) 99,45 %
30.08.2017 17:00 27,9 C 24,4 C 48 % 1011,0 hPa 0,0 l/m 6,6 km/h (2 Bft) NO 1,00 h 0,355 mm 0,9 UV-I 302 W/m 15,8 C 27,8 C 10,6 km/h (2 Bft) 96,83 %
30.08.2017 18:00 26,8 C 24,4 C 53 % 1010,5 hPa 0,0 l/m 4,9 km/h (1 Bft) O-NO 1,00 h 0,254 mm 0,5 UV-I 137 W/m 16,4 C 26,8 C 7,2 km/h (2 Bft) 98,51 %
30.08.2017 19:00 24,7 C 24,4 C 58 % 1010,2 hPa 0,0 l/m 4,1 km/h (1 Bft) O 0,07 h 0,127 mm 0,0 UV-I 24 W/m 16,0 C 24,7 C 6,5 km/h (2 Bft) 97,97 %
30.08.2017 20:00 23,2 C 24,4 C 64 % 1010,2 hPa 0,0 l/m 4,3 km/h (1 Bft) O-NO 0,00 h 0,051 mm 0,0 UV-I 0 W/m 15,9 C 23,2 C 6,8 km/h (2 Bft) 99,49 %
30.08.2017 21:00 21,8 C 24,0 C 69 % 1010,3 hPa 0,0 l/m 3,1 km/h (1 Bft) O-NO 0,00 h 0,026 mm 0,0 UV-I 0 W/m 15,8 C 21,8 C 4,6 km/h (1 Bft) 96,29 %
30.08.2017 22:00 20,9 C 23,9 C 74 % 1010,0 hPa 0,0 l/m 6,2 km/h (2 Bft) O-NO 0,00 h 0,025 mm 0,0 UV-I 0 W/m 16,0 C 20,7 C 9,4 km/h (2 Bft) 98,80 %
30.08.2017 23:00 19,1 C 23,9 C 83 % 1009,7 hPa 0,0 l/m 1,8 km/h (1 Bft) O-NO 0,00 h 0,025 mm 0,0 UV-I 0 W/m 16,1 C 19,1 C 3,4 km/h (1 Bft) 98,11 %
31.08.2017 00:00 18,1 C 23,9 C 85 % 1009,3 hPa 0,0 l/m 3,5 km/h (1 Bft) O-NO 0,00 h 0,000 mm 0,0 UV-I 0 W/m 15,6 C 18,0 C 5,5 km/h (1 Bft) 98,81 %
31.08.2017 01:00 17,0 C 23,9 C 87 % 1009,0 hPa 0,0 l/m 2,1 km/h (1 Bft) O-NO 0,00 h 0,000 mm 0,0 UV-I 0 W/m 14,9 C 17,0 C 3,2 km/h (1 Bft) 95,48 %
31.08.2017 02:00 15,8 C 23,5 C 90 % 1008,9 hPa 0,0 l/m 1,4 km/h (1 Bft) SW 0,00 h 0,000 mm 0,0 UV-I 0 W/m 14,2 C 15,8 C 2,6 km/h (1 Bft) 99,30 %
31.08.2017 03:00 15,4 C 23,3 C 92 % 1009,3 hPa 0,0 l/m 2,7 km/h (1 Bft) S-SW 0,00 h 0,000 mm 0,0 UV-I 0 W/m 14,0 C 15,3 C 4,6 km/h (1 Bft) 98,14 %
31.08.2017 04:00 15,7 C 23,3 C 92 % 1010,4 hPa 0,0 l/m 5,5 km/h (1 Bft) S-SW 0,00 h 0,000 mm 0,0 UV-I 0 W/m 14,4 C 15,4 C 8,6 km/h (2 Bft) 97,66 %
31.08.2017 05:00 16,4 C 23,3 C 92 % 1010,9 hPa 0,0 l/m 9,8 km/h (2 Bft) W-SW 0,00 h 0,000 mm 0,0 UV-I 0 W/m 15,1 C 14,8 C 14,5 km/h (3 Bft) 96,74 %
31.08.2017 06:00 18,3 C 23,3 C 89 % 1011,4 hPa 0,0 l/m 8,0 km/h (2 Bft) W 0,37 h 0,025 mm 0,0 UV-I 21 W/m 16,4 C 17,2 C 13,3 km/h (3 Bft) 98,94 %
31.08.2017 07:00 17,6 C 23,1 C 88 % 1011,8 hPa 0,0 l/m 2,6 km/h (1 Bft) N-NO 0,83 h 0,026 mm 0,0 UV-I 118 W/m 15,5 C 17,5 C 4,8 km/h (1 Bft) 98,06 %
31.08.2017 08:00 19,6 C 23,3 C 83 % 1011,4 hPa 0,0 l/m 3,8 km/h (1 Bft) NO 1,00 h 0,076 mm 0,7 UV-I 272 W/m 16,7 C 19,6 C 6,0 km/h (2 Bft) 97,43 %
31.08.2017 09:00 21,5 C 23,3 C 79 % 1011,2 hPa 0,0 l/m 3,0 km/h (1 Bft) SO 1,00 h 0,178 mm 1,6 UV-I 433 W/m 17,8 C 21,5 C 5,7 km/h (1 Bft) 97,30 %
31.08.2017 10:00 23,3 C 23,3 C 76 % 1010,9 hPa 0,0 l/m 1,3 km/h (1 Bft) NO 1,00 h 0,254 mm 2,8 UV-I 575 W/m 18,8 C 23,3 C 3,1 km/h (1 Bft) 98,75 %
31.08.2017 11:00 24,8 C 23,3 C 72 % 1010,3 hPa 0,0 l/m 4,6 km/h (1 Bft) O-NO 1,00 h 0,355 mm 3,9 UV-I 672 W/m 19,3 C 24,8 C 8,6 km/h (2 Bft) 97,67 %
31.08.2017 12:00 25,9 C 23,8 C 68 % 1009,8 hPa 0,0 l/m 5,1 km/h (1 Bft) NO 1,00 h 0,432 mm 4,6 UV-I 722 W/m 19,6 C 25,8 C 8,6 km/h (2 Bft) 97,49 %
31.08.2017 13:00 26,8 C 24,1 C 66 % 1010,0 hPa 0,0 l/m 2,5 km/h (1 Bft) W-NW 1,00 h 0,483 mm 4,5 UV-I 716 W/m 19,8 C 26,8 C 6,0 km/h (2 Bft) 97,94 %
31.08.2017 14:00 28,0 C 24,4 C 60 % 1010,3 hPa 0,0 l/m 6,9 km/h (2 Bft) W-SW 1,00 h 0,482 mm 3,8 UV-I 655 W/m 19,6 C 27,8 C 13,1 km/h (3 Bft) 99,16 %
31.08.2017 15:00 28,6 C 24,8 C 56 % 1010,5 hPa 0,0 l/m 10,0 km/h (2 Bft) W-SW 1,00 h 0,483 mm 2,9 UV-I 569 W/m 18,9 C 28,2 C 18,3 km/h (3 Bft) 95,85 %
31.08.2017 16:00 26,6 C 25,0 C 60 % 1010,7 hPa 2,0 l/m 12,9 km/h (3 Bft) W-SW 0,17 h 0,457 mm 1,2 UV-I 123 W/m 18,0 C 25,5 C 23,0 km/h (4 Bft) 99,02 %
31.08.2017 17:00 21,6 C 25,0 C 88 % 1012,2 hPa 1,0 l/m 13,9 km/h (3 Bft) SW 0,00 h 0,153 mm 0,0 UV-I 26 W/m 19,5 C 19,4 C 21,4 km/h (4 Bft) 97,55 %
31.08.2017 18:00 21,2 C 24,4 C 87 % 1012,8 hPa 0,0 l/m 14,1 km/h (3 Bft) W-SW 0,40 h 0,050 mm 0,0 UV-I 87 W/m 18,8 C 18,9 C 20,9 km/h (4 Bft) 98,46 %
31.08.2017 19:00 20,3 C 24,4 C 85 % 1014,1 hPa 0,0 l/m 18,6 km/h (3 Bft) SW 0,23 h 0,077 mm 0,0 UV-I 22 W/m 17,7 C 16,9 C 28,0 km/h (4 Bft) 96,44 %
31.08.2017 20:00 19,4 C 24,4 C 84 % 1015,2 hPa 0,0 l/m 16,8 km/h (3 Bft) SW 0,00 h 0,050 mm 0,0 UV-I 0 W/m 16,7 C 16,1 C 26,3 km/h (4 Bft) 99,16 %
31.08.2017 21:00 19,1 C 24,3 C 85 % 1015,8 hPa 0,0 l/m 14,8 km/h (3 Bft) W-SW 0,00 h 0,051 mm 0,0 UV-I 0 W/m 16,5 C 16,3 C 23,4 km/h (4 Bft) 97,61 %
31.08.2017 22:00 17,5 C 23,9 C 86 % 1016,5 hPa 0,0 l/m 13,1 km/h (3 Bft) W-SW 0,00 h 0,026 mm 0,0 UV-I 0 W/m 15,1 C 14,8 C 20,6 km/h (4 Bft) 97,62 %
31.08.2017 23:00 16,8 C 23,9 C 88 % 1016,6 hPa 0,0 l/m 8,7 km/h (2 Bft) W-SW 0,00 h 0,025 mm 0,0 UV-I 0 W/m 14,8 C 15,7 C 14,4 km/h (3 Bft) 96,80 %
01.09.2017 00:00 16,5 C 23,9 C 90 % 1016,3 hPa 0,0 l/m 9,5 km/h (2 Bft) SW 0,00 h 0,000 mm 0,0 UV-I 0 W/m 14,9 C 15,0 C 15,3 km/h (3 Bft) 98,91 %
01.09.2017 01:00 16,1 C 23,9 C 93 % 1016,1 hPa 0,4 l/m 10,2 km/h (2 Bft) SW 0,00 h 0,025 mm 0,0 UV-I 0 W/m 14,9 C 14,2 C 16,4 km/h (3 Bft) 97,23 %
01.09.2017 02:00 15,7 C 23,5 C 95 % 1015,7 hPa 0,8 l/m 8,1 km/h (2 Bft) SW 0,00 h 0,000 mm 0,0 UV-I 0 W/m 14,9 C 14,8 C 12,9 km/h (3 Bft) 96,90 %
01.09.2017 03:00 15,6 C 23,3 C 95 % 1015,5 hPa 1,4 l/m 7,0 km/h (2 Bft) W-SW 0,00 h 0,000 mm 0,0 UV-I 0 W/m 14,8 C 15,1 C 11,8 km/h (2 Bft) 98,39 %
01.09.2017 04:00 15,5 C 23,3 C 96 % 1015,4 hPa 1,0 l/m 7,3 km/h (2 Bft) SW 0,00 h 0,000 mm 0,0 UV-I 0 W/m 14,8 C 14,9 C 12,0 km/h (2 Bft) 98,99 %
01.09.2017 05:00 15,4 C 23,3 C 96 % 1014,9 hPa 1,8 l/m 6,7 km/h (2 Bft) SW 0,00 h 0,000 mm 0,0 UV-I 0 W/m 14,8 C 15,0 C 10,9 km/h (2 Bft) 97,61 %
01.09.2017 06:00 15,3 C 23,3 C 96 % 1014,6 hPa 3,0 l/m 7,8 km/h (2 Bft) SW 0,00 h 0,000 mm 0,0 UV-I 5 W/m 14,6 C 14,5 C 12,9 km/h (3 Bft) 97,28 %
01.09.2017 07:00 15,2 C 23,0 C 97 % 1014,2 hPa 1,4 l/m 4,9 km/h (1 Bft) W-SW 0,00 h 0,000 mm 0,0 UV-I 16 W/m 14,7 C 15,0 C 9,0 km/h (2 Bft) 97,37 %
01.09.2017 08:00 15,2 C 22,8 C 97 % 1014,5 hPa 1,4 l/m 2,2 km/h (1 Bft) NW 0,00 h 0,000 mm 0,0 UV-I 43 W/m 14,7 C 15,1 C 4,9 km/h (1 Bft) 98,95 %
01.09.2017 09:00 15,0 C 22,8 C 95 % 1014,4 hPa 0,0 l/m 0,8 km/h (0 Bft) NW 0,00 h 0,026 mm 0,4 UV-I 73 W/m 14,3 C 15,0 C 2,7 km/h (1 Bft) 97,43 %
01.09.2017 10:00 15,0 C 22,8 C 96 % 1014,3 hPa 0,0 l/m 0,4 km/h (0 Bft) NW 0,00 h 0,051 mm 0,5 UV-I 79 W/m 14,3 C 15,0 C 1,8 km/h (1 Bft) 97,65 %
01.09.2017 11:00 15,1 C 22,8 C 96 % 1014,2 hPa 0,8 l/m 1,1 km/h (1 Bft) NW 0,00 h 0,050 mm 0,6 UV-I 95 W/m 14,5 C 15,1 C 3,9 km/h (1 Bft) 97,87 %
01.09.2017 12:00 15,1 C 22,8 C 97 % 1013,7 hPa 0,2 l/m 1,8 km/h (1 Bft) N-NO 0,00 h 0,051 mm 0,9 UV-I 123 W/m 14,5 C 15,1 C 5,0 km/h (1 Bft) 99,22 %
01.09.2017 13:00 14,9 C 22,8 C 96 % 1013,9 hPa 1,0 l/m 4,8 km/h (1 Bft) W-SW 0,00 h 0,051 mm 0,6 UV-I 88 W/m 14,2 C 14,7 C 10,5 km/h (2 Bft) 97,13 %
01.09.2017 14:00 14,8 C 22,8 C 96 % 1014,1 hPa 1,4 l/m 7,0 km/h (2 Bft) W-SW 0,00 h 0,051 mm 0,9 UV-I 124 W/m 14,2 C 14,2 C 13,8 km/h (3 Bft) 97,61 %
01.09.2017 15:00 15,0 C 22,8 C 96 % 1014,2 hPa 1,4 l/m 6,6 km/h (2 Bft) W-SW 0,00 h 0,076 mm 0,6 UV-I 101 W/m 14,3 C 14,5 C 12,7 km/h (3 Bft) 97,92 %
01.09.2017 16:00 14,6 C 22,8 C 96 % 1014,5 hPa 2,0 l/m 4,9 km/h (1 Bft) W-SW 0,00 h 0,051 mm 0,4 UV-I 62 W/m 14,0 C 14,5 C 8,4 km/h (2 Bft) 98,78 %
01.09.2017 17:00 15,0 C 22,2 C 96 % 1014,9 hPa 0,2 l/m 6,3 km/h (2 Bft) W-SW 0,07 h 0,025 mm 0,1 UV-I 93 W/m 14,4 C 14,6 C 10,6 km/h (2 Bft) 95,94 %
01.09.2017 18:00 14,9 C 22,2 C 95 % 1015,1 hPa 0,0 l/m 5,1 km/h (1 Bft) W 0,00 h 0,051 mm 0,0 UV-I 33 W/m 14,1 C 14,8 C 8,6 km/h (2 Bft) 98,12 %
01.09.2017 19:00 14,5 C 22,2 C 94 % 1015,2 hPa 0,2 l/m 1,5 km/h (1 Bft) N-NW 0,13 h 0,025 mm 0,0 UV-I 19 W/m 13,5 C 14,5 C 4,3 km/h (1 Bft) 97,86 %
01.09.2017 20:00 13,6 C 22,2 C 91 % 1015,6 hPa 0,0 l/m 2,0 km/h (1 Bft) N-NW 0,00 h 0,000 mm 0,0 UV-I 0 W/m 12,3 C 13,6 C 5,0 km/h (1 Bft) 98,74 %
01.09.2017 21:00 13,4 C 22,2 C 93 % 1015,7 hPa 0,0 l/m 1,1 km/h (0 Bft) O-NO 0,00 h 0,000 mm 0,0 UV-I 0 W/m 12,4 C 13,4 C 2,9 km/h (1 Bft) 95,60 %
01.09.2017 22:00 13,4 C 22,2 C 94 % 1015,7 hPa 0,0 l/m 0,1 km/h (0 Bft) O-NO 0,00 h 0,000 mm 0,0 UV-I 0 W/m 12,5 C 13,4 C 0,3 km/h (0 Bft) 98,86 %
01.09.2017 23:00 13,4 C 22,2 C 95 % 1015,8 hPa 0,0 l/m 1,0 km/h (0 Bft) O-NO 0,00 h 0,000 mm 0,0 UV-I 0 W/m 12,6 C 13,4 C 2,3 km/h (1 Bft) 98,30 %
02.09.2017 00:00 13,0 C 21,7 C 94 % 1015,8 hPa 0,0 l/m 2,8 km/h (1 Bft) O-NO 0,00 h 0,000 mm 0,0 UV-I 0 W/m 12,1 C 13,0 C 4,5 km/h (1 Bft) 97,23 %
02.09.2017 01:00 12,7 C 21,7 C 93 % 1015,5 hPa 0,0 l/m 5,9 km/h (2 Bft) NO 0,00 h 0,000 mm 0,0 UV-I 0 W/m 11,5 C 12,4 C 9,4 km/h (2 Bft) 97,29 %
02.09.2017 02:00 12,3 C 21,7 C 92 % 1015,5 hPa 0,0 l/m 3,2 km/h (1 Bft) N-NO 0,00 h 0,000 mm 0,0 UV-I 0 W/m 11,0 C 12,3 C 5,6 km/h (1 Bft) 98,74 %
02.09.2017 03:00 12,1 C 21,7 C 92 % 1015,6 hPa 0,0 l/m 3,5 km/h (1 Bft) N-NO 0,00 h 0,000 mm 0,0 UV-I 0 W/m 10,8 C 12,0 C 6,0 km/h (2 Bft) 97,36 %
02.09.2017 04:00 11,8 C 21,3 C 91 % 1015,4 hPa 0,0 l/m 2,4 km/h (1 Bft) NO 0,00 h 0,000 mm 0,0 UV-I 0 W/m 10,4 C 11,8 C 4,1 km/h (1 Bft) 97,54 %
02.09.2017 05:00 11,6 C 21,1 C 92 % 1015,2 hPa 0,0 l/m 2,8 km/h (1 Bft) NO 0,00 h 0,000 mm 0,0 UV-I 0 W/m 10,4 C 11,6 C 4,3 km/h (1 Bft) 98,14 %
02.09.2017 06:00 11,4 C 21,1 C 92 % 1015,1 hPa 0,0 l/m 1,4 km/h (1 Bft) NO 0,00 h 0,000 mm 0,0 UV-I 9 W/m 10,2 C 11,4 C 3,0 km/h (1 Bft) 99,36 %
02.09.2017 07:00 11,7 C 21,1 C 92 % 1015,1 hPa 0,0 l/m 0,4 km/h (0 Bft) NO 0,00 h 0,000 mm 0,0 UV-I 46 W/m 10,4 C 11,7 C 1,2 km/h (1 Bft) 95,52 %
02.09.2017 08:00 12,1 C 21,1 C 90 % 1015,0 hPa 0,0 l/m 5,1 km/h (1 Bft) N-NO 0,00 h 0,025 mm 0,3 UV-I 111 W/m 10,4 C 11,7 C 9,6 km/h (2 Bft) 98,65 %
02.09.2017 09:00 12,3 C 21,1 C 88 % 1015,1 hPa 0,0 l/m 4,4 km/h (1 Bft) N-NO 0,00 h 0,051 mm 0,7 UV-I 103 W/m 10,3 C 12,2 C 9,7 km/h (2 Bft) 97,64 %
02.09.2017 10:00 12,2 C 21,0 C 88 % 1015,3 hPa 0,0 l/m 2,3 km/h (1 Bft) N-NO 0,00 h 0,051 mm 0,3 UV-I 58 W/m 10,2 C 12,1 C 5,9 km/h (2 Bft) 97,67 %
02.09.2017 11:00 12,2 C 20,6 C 90 % 1015,1 hPa 0,2 l/m 2,5 km/h (1 Bft) N-NO 0,00 h 0,025 mm 0,8 UV-I 118 W/m 10,7 C 12,2 C 5,5 km/h (1 Bft) 96,31 %
02.09.2017 12:00 12,6 C 20,6 C 89 % 1015,1 hPa 0,0 l/m 1,9 km/h (1 Bft) NW 0,00 h 0,051 mm 0,9 UV-I 141 W/m 10,8 C 12,6 C 4,6 km/h (1 Bft) 99,29 %
02.09.2017 13:00 12,6 C 20,6 C 89 % 1014,9 hPa 0,0 l/m 2,6 km/h (1 Bft) NW 0,00 h 0,076 mm 0,7 UV-I 108 W/m 10,8 C 12,6 C 6,0 km/h (2 Bft) 97,63 %
02.09.2017 14:00 12,8 C 20,6 C 88 % 1014,8 hPa 0,0 l/m 2,7 km/h (1 Bft) N-NW 0,00 h 0,051 mm 0,8 UV-I 116 W/m 10,9 C 12,8 C 6,0 km/h (2 Bft) 97,56 %
02.09.2017 15:00 12,3 C 20,6 C 93 % 1014,6 hPa 0,2 l/m 1,0 km/h (0 Bft) NW 0,00 h 0,051 mm 0,0 UV-I 53 W/m 11,2 C 12,3 C 3,2 km/h (1 Bft) 96,90 %
02.09.2017 16:00 12,0 C 20,6 C 95 % 1014,4 hPa 0,6 l/m 1,5 km/h (1 Bft) NW 0,00 h 0,025 mm 0,0 UV-I 55 W/m 11,3 C 12,0 C 4,3 km/h (1 Bft) 99,15 %
02.09.2017 17:00 11,9 C 20,6 C 96 % 1014,1 hPa 0,4 l/m 1,8 km/h (1 Bft) NW 0,00 h 0,026 mm 0,0 UV-I 42 W/m 11,2 C 11,9 C 4,8 km/h (1 Bft) 97,50 %
02.09.2017 18:00 11,9 C 20,6 C 96 % 1013,9 hPa 2,4 l/m 1,2 km/h (1 Bft) W 0,00 h 0,025 mm 0,0 UV-I 31 W/m 11,3 C 11,9 C 3,7 km/h (1 Bft) 97,22 %
02.09.2017 19:00 11,8 C 20,6 C 96 % 1013,9 hPa 1,4 l/m 0,9 km/h (0 Bft) N-NW 0,00 h 0,026 mm 0,0 UV-I 8 W/m 11,2 C 11,8 C 2,8 km/h (1 Bft) 97,58 %
02.09.2017 20:00 11,7 C 20,1 C 96 % 1014,4 hPa 1,8 l/m 1,5 km/h (1 Bft) W 0,00 h 0,000 mm 0,0 UV-I 0 W/m 11,0 C 11,7 C 3,4 km/h (1 Bft) 98,73 %
02.09.2017 21:00 11,6 C 20,0 C 96 % 1014,7 hPa 1,8 l/m 1,5 km/h (1 Bft) W 0,00 h 0,000 mm 0,0 UV-I 0 W/m 11,0 C 11,6 C 4,2 km/h (1 Bft) 96,35 %
02.09.2017 22:00 11,4 C 20,0 C 97 % 1014,8 hPa 1,4 l/m 0,5 km/h (0 Bft) W 0,00 h 0,000 mm 0,0 UV-I 0 W/m 10,9 C 11,4 C 2,2 km/h (1 Bft) 98,22 %
02.09.2017 23:00 11,3 C 20,0 C 96 % 1014,9 hPa 1,4 l/m 1,1 km/h (1 Bft) W 0,00 h 0,000 mm 0,0 UV-I 0 W/m 10,7 C 11,3 C 3,3 km/h (1 Bft) 97,82 %
03.09.2017 00:00 11,1 C 20,0 C 97 % 1014,8 hPa 1,0 l/m 3,3 km/h (1 Bft) W-SW 0,00 h 0,000 mm 0,0 UV-I 0 W/m 10,6 C 11,1 C 5,8 km/h (2 Bft) 99,11 %
03.09.2017 01:00 11,0 C 20,0 C 97 % 1014,5 hPa 1,4 l/m 3,0 km/h (1 Bft) W-SW 0,00 h 0,000 mm 0,0 UV-I 0 W/m 10,5 C 11,0 C 5,9 km/h (2 Bft) 95,72 %
03.09.2017 02:00 11,1 C 19,4 C 97 % 1014,3 hPa 2,2 l/m 3,8 km/h (1 Bft) W-SW 0,00 h 0,000 mm 0,0 UV-I 0 W/m 10,6 C 11,1 C 6,5 km/h (2 Bft) 99,46 %
03.09.2017 03:00 11,2 C 19,4 C 97 % 1014,0 hPa 1,2 l/m 5,8 km/h (2 Bft) W-SW 0,00 h 0,000 mm 0,0 UV-I 0 W/m 10,7 C 11,0 C 9,5 km/h (2 Bft) 97,71 %
03.09.2017 04:00 11,1 C 19,4 C 97 % 1013,9 hPa 2,2 l/m 5,6 km/h (1 Bft) W-SW 0,00 h 0,000 mm 0,0 UV-I 0 W/m 10,7 C 10,9 C 9,6 km/h (2 Bft) 97,95 %
03.09.2017 05:00 11,1 C 19,4 C 97 % 1013,8 hPa 4,2 l/m 4,1 km/h (1 Bft) W 0,00 h 0,000 mm 0,0 UV-I 0 W/m 10,6 C 11,0 C 8,4 km/h (2 Bft) 96,43 %
03.09.2017 06:00 10,9 C 19,4 C 97 % 1013,7 hPa 1,8 l/m 5,4 km/h (1 Bft) W-SW 0,00 h 0,000 mm 0,0 UV-I 5 W/m 10,4 C 10,8 C 9,9 km/h (2 Bft) 98,87 %
03.09.2017 07:00 10,9 C 19,1 C 97 % 1013,9 hPa 0,6 l/m 6,9 km/h (2 Bft) W-SW 0,00 h 0,000 mm 0,0 UV-I 27 W/m 10,4 C 10,3 C 12,5 km/h (3 Bft) 97,34 %
03.09.2017 08:00 11,1 C 18,9 C 97 % 1014,3 hPa 0,6 l/m 7,2 km/h (2 Bft) W 0,00 h 0,025 mm 0,0 UV-I 66 W/m 10,6 C 10,3 C 13,1 km/h (3 Bft) 97,75 %
03.09.2017 09:00 11,2 C 18,9 C 97 % 1014,7 hPa 1,2 l/m 7,2 km/h (2 Bft) W-SW 0,00 h 0,026 mm 0,4 UV-I 98 W/m 10,8 C 10,5 C 13,6 km/h (3 Bft) 96,28 %
03.09.2017 10:00 11,4 C 18,9 C 97 % 1014,8 hPa 0,8 l/m 7,5 km/h (2 Bft) W-SW 0,00 h 0,051 mm 0,8 UV-I 146 W/m 11,0 C 10,6 C 13,6 km/h (3 Bft) 99,22 %
03.09.2017 11:00 11,7 C 18,9 C 96 % 1014,9 hPa 0,2 l/m 6,6 km/h (2 Bft) W-SW 0,00 h 0,076 mm 0,8 UV-I 136 W/m 11,0 C 11,3 C 11,9 km/h (2 Bft) 98,22 %
03.09.2017 12:00 12,2 C 18,9 C 94 % 1015,0 hPa 0,0 l/m 8,5 km/h (2 Bft) W-SW 0,00 h 0,076 mm 1,0 UV-I 148 W/m 11,3 C 10,9 C 14,0 km/h (3 Bft) 97,52 %
03.09.2017 13:00 12,4 C 18,9 C 93 % 1014,9 hPa 0,2 l/m 8,2 km/h (2 Bft) W-SW 0,00 h 0,076 mm 0,7 UV-I 114 W/m 11,2 C 11,2 C 13,4 km/h (3 Bft) 97,66 %
03.09.2017 14:00 13,4 C 18,9 C 89 % 1014,5 hPa 0,0 l/m 9,6 km/h (2 Bft) W-SW 0,07 h 0,076 mm 1,5 UV-I 283 W/m 11,5 C 11,6 C 14,9 km/h (3 Bft) 99,05 %
03.09.2017 15:00 15,0 C 18,9 C 79 % 1014,0 hPa 0,0 l/m 11,2 km/h (2 Bft) W-SW 0,70 h 0,153 mm 2,0 UV-I 454 W/m 11,4 C 12,7 C 17,7 km/h (3 Bft) 97,96 %
03.09.2017 16:00 14,0 C 18,9 C 80 % 1014,0 hPa 0,0 l/m 14,0 km/h (3 Bft) W-SW 0,17 h 0,254 mm 0,8 UV-I 207 W/m 10,5 C 10,4 C 21,4 km/h (4 Bft) 98,63 %
03.09.2017 17:00 13,9 C 18,9 C 80 % 1014,1 hPa 0,0 l/m 14,8 km/h (3 Bft) W-SW 0,63 h 0,127 mm 0,6 UV-I 245 W/m 10,5 C 10,0 C 22,0 km/h (4 Bft) 95,79 %
03.09.2017 18:00 13,2 C 18,9 C 80 % 1014,4 hPa 0,0 l/m 15,4 km/h (3 Bft) W-SW 0,27 h 0,152 mm 0,0 UV-I 88 W/m 9,9 C 9,0 C 23,8 km/h (4 Bft) 98,10 %
03.09.2017 19:00 12,1 C 18,9 C 85 % 1015,0 hPa 6,2 l/m 10,1 km/h (2 Bft) W 0,00 h 0,076 mm 0,0 UV-I 17 W/m 9,7 C 9,9 C 17,0 km/h (3 Bft) 97,84 %
03.09.2017 20:00 10,8 C 18,9 C 93 % 1015,7 hPa 5,4 l/m 2,8 km/h (1 Bft) S-SW 0,00 h 0,026 mm 0,0 UV-I 0 W/m 9,8 C 10,7 C 5,7 km/h (1 Bft) 98,78 %
03.09.2017 21:00 10,7 C 18,9 C 95 % 1015,8 hPa 0,6 l/m 2,4 km/h (1 Bft) S 0,00 h 0,000 mm 0,0 UV-I 0 W/m 9,9 C 10,7 C 4,8 km/h (1 Bft) 95,88 %
03.09.2017 22:00 10,7 C 18,9 C 95 % 1015,7 hPa 0,0 l/m 6,1 km/h (2 Bft) SW 0,00 h 0,000 mm 0,0 UV-I 0 W/m 10,0 C 10,5 C 9,4 km/h (2 Bft) 98,70 %
03.09.2017 23:00 10,6 C 18,3 C 94 % 1015,7 hPa 0,0 l/m 6,5 km/h (2 Bft) SW 0,00 h 0,000 mm 0,0 UV-I 0 W/m 9,7 C 10,3 C 9,7 km/h (2 Bft) 97,41 %
Min-Datum _ 03.09.17 03.09.17 30.08.17 31.08.17 - 28.08.17 - - - - - 03.09.17 03.09.17 28.08.17 28.08.17
_ Min-Zeit 23:18 22:56 17:30 01:18 - 00:42 - - - - - 19:06 19:32 00:42 04:02
Minimum _ 10,6 C 18,3 C 45 % 1008,8 hPa - 0,0 km/h (0 Bft) - - - - - 9,5 C 6,4 C 0,0 km/h (0 Bft) 82,61 %
Max-Datum _ 31.08.17 31.08.17 28.08.17 29.08.17 28.08.17 31.08.17 - 28.08.17 29.08.17 29.08.17 29.08.17 31.08.17 31.08.17 31.08.17 28.08.17
_ Max-Zeit 15:14 15:20 07:34 07:46 05:42 19:38 - 08:23 13:00 12:44 12:56 13:26 15:12 19:38 00:02
Maximum _ 28,9 C 25,0 C 97 % 1018,0 hPa 7,0 l/m 23,2 km/h
SW (4 Bft)
- 0,05 h 0,559 mm 5,1 UV-I 789 W/m 20,7 C 28,8 C 35,4 km/h
SW (5 Bft)
100,00 %
Durchschnitt _ 16,7 C 22,5 C 85 % 1014,5 hPa #72,6 l/m 4,9 km/h (1 Bft) O-NO #41:16 h #16,307 mm 1,8 UV-I 237 W/m 13,9 C 16,3 C 8,3 km/h (2 Bft) 97,94 %